Time;durP1;ratioP1;P1;durP2;ratioP2;P2;SDS_P1;SDS_P2;PMS_P1;PMS_P2;Temp;Humidity;BMP_temperature;BMP_pressure;BME280_temperature;BME280_humidity;BME280_pressure;Samples;Min_cycle;Max_cycle;Signal;HPM_P1;HPM_P2
2022/07/27 00:00:49;;;;;;;;;1.00;1.00;;;;;25.06;38.79;101443.97;4898298;29;52137;-44
2022/07/27 00:03:14;;;;;;;;;3.75;2.00;;;;;25.05;39.38;101436.94;4898637;29;45428;-45
2022/07/27 00:05:40;;;;;;;;;3.00;2.00;;;;;25.05;38.83;101434.28;4898931;29;45423;-48
2022/07/27 00:08:06;;;;;;;;;1.50;1.50;;;;;25.04;39.46;101434.41;4898864;29;45472;-47
2022/07/27 00:10:33;;;;;;;;;2.25;2.25;;;;;25.04;39.38;101429.09;4898820;29;45197;-47
2022/07/27 00:12:58;;;;;;;;;2.00;2.00;;;;;25.03;38.92;101432.69;4898776;29;45431;-46
2022/07/27 00:15:23;;;;;;;;;2.00;2.00;;;;;25.03;39.04;101435.34;4898491;29;45333;-45
2022/07/27 00:17:49;;;;;;;;;1.00;1.00;;;;;25.03;39.39;101428.25;4898245;29;45234;-48
2022/07/27 00:20:14;;;;;;;;;2.25;2.25;;;;;25.03;39.80;101427.41;4900262;29;45231;-49
2022/07/27 00:22:40;;;;;;;;;2.00;2.00;;;;;25.01;39.42;101436.31;4902355;28;45498;-48
2022/07/27 00:25:06;;;;;;;;;1.00;1.00;;;;;25.00;39.95;101434.59;4901998;29;45355;-52
2022/07/27 00:27:31;;;;;;;;;2.00;2.00;;;;;24.99;39.97;101422.28;4901521;29;45367;-48
2022/07/27 00:29:57;;;;;;;;;2.00;2.00;;;;;24.98;39.40;101423.25;4901026;29;52371;-50
2022/07/27 00:32:22;;;;;;;;;3.25;2.75;;;;;24.97;39.90;101424.19;4901969;29;45590;-55
2022/07/27 00:34:47;;;;;;;;;4.75;2.00;;;;;24.96;40.06;101427.81;4901287;29;46560;-48
2022/07/27 00:37:13;;;;;;;;;2.00;2.00;;;;;24.96;39.98;101433.13;4901366;29;45459;-51
2022/07/27 00:39:39;;;;;;;;;5.50;2.75;;;;;24.97;39.72;101428.66;4900620;29;45447;-55
2022/07/27 00:42:04;;;;;;;;;6.00;3.00;;;;;24.97;39.74;101431.31;4901628;29;45363;-54
2022/07/27 00:44:31;;;;;;;;;2.25;2.25;;;;;24.96;40.33;101427.81;4901287;28;46308;-56
2022/07/27 00:46:58;;;;;;;;;2.50;2.50;;;;;24.96;39.76;101425.16;4899912;29;45732;-51
2022/07/27 00:49:25;;;;;;;;;3.00;3.00;;;;;24.97;39.60;101424.19;4901382;29;45348;-51
2022/07/27 00:51:51;;;;;;;;;3.00;3.00;;;;;24.96;40.11;101424.28;4901459;29;45595;-46
2022/07/27 00:54:18;;;;;;;;;2.50;2.50;;;;;24.97;39.88;101426.00;4900064;29;46546;-54
2022/07/27 00:56:43;;;;;;;;;2.00;2.00;;;;;24.96;40.06;101417.22;4899917;29;45783;-49
2022/07/27 00:59:11;;;;;;;;;3.00;2.00;;;;;24.95;40.48;101412.84;4901711;29;45461;-51
2022/07/27 01:01:36;;;;;;;;;4.00;3.00;;;;;24.95;40.58;101410.19;4900753;29;45310;-47
2022/07/27 01:04:02;;;;;;;;;4.75;3.75;;;;;24.95;40.54;101410.19;4900874;29;45502;-47
2022/07/27 01:06:27;;;;;;;;;2.25;2.25;;;;;24.95;40.76;101415.50;4901187;29;45388;-44
2022/07/27 01:09:55;;;;;;;;;4.00;4.00;;;;;24.95;40.63;101410.19;4900839;29;45238;-47
2022/07/27 01:11:40;;;;;;;;;2.25;2.25;;;;;24.93;40.40;101412.09;4901607;29;45558;-47
2022/07/27 01:14:06;;;;;;;;;3.00;3.00;;;;;24.93;40.15;101416.53;4899434;29;47513;-45
2022/07/27 01:16:32;;;;;;;;;3.00;3.00;;;;;24.90;40.43;101411.44;4900944;29;45366;-47
2022/07/27 01:18:57;;;;;;;;;4.00;3.75;;;;;24.88;40.71;101408.03;4900832;29;45715;-46
2022/07/27 01:21:22;;;;;;;;;2.75;2.75;;;;;24.87;40.36;101409.81;4901148;29;45534;-46
2022/07/27 01:23:47;;;;;;;;;3.00;3.00;;;;;24.85;40.46;101401.97;4900498;29;47776;-48
2022/07/27 01:26:13;;;;;;;;;3.00;3.00;;;;;24.86;40.78;101402.81;4900944;29;45468;-54
2022/07/27 01:28:42;;;;;;;;;2.25;2.00;;;;;24.86;40.70;101405.47;4901024;29;45483;-49
2022/07/27 01:31:08;;;;;;;;;3.00;3.00;;;;;24.87;40.44;101401.88;4900859;29;45604;-52
2022/07/27 01:33:33;;;;;;;;;3.50;3.50;;;;;24.85;40.89;101398.50;4900686;29;46386;-45
2022/07/27 01:35:58;;;;;;;;;4.00;3.00;;;;;24.82;40.92;101396.88;4900237;29;48346;-47
2022/07/27 01:38:24;;;;;;;;;2.25;2.00;;;;;24.82;40.55;101394.22;4900704;29;45372;-49
2022/07/27 01:40:51;;;;;;;;;4.00;3.00;;;;;24.82;41.08;101396.03;4900617;28;45530;-48
2022/07/27 01:43:16;;;;;;;;;3.00;3.00;;;;;24.81;40.55;101394.34;4900455;29;45750;-47
2022/07/27 01:45:42;;;;;;;;;4.00;4.00;;;;;24.79;41.26;101398.88;4900262;29;45404;-46
2022/07/27 01:48:08;;;;;;;;;4.00;2.50;;;;;24.78;40.63;101402.47;4900399;29;52522;-46
2022/07/27 01:50:33;;;;;;;;;3.00;3.00;;;;;24.77;41.23;101395.47;4900865;29;45612;-46
2022/07/27 01:52:59;;;;;;;;;2.00;2.00;;;;;24.76;40.66;101399.94;4900069;29;46461;-45
2022/07/27 01:55:24;;;;;;;;;3.50;2.75;;;;;24.78;40.64;101394.53;4900423;29;45455;-47
2022/07/27 01:57:49;;;;;;;;;3.00;3.00;;;;;24.77;40.82;101384.88;4900248;29;45344;-45
2022/07/27 02:00:15;;;;;;;;;4.00;1.50;;;;;24.76;41.33;101391.97;4900596;29;45367;-51
2022/07/27 02:02:40;;;;;;;;;3.00;3.00;;;;;24.74;41.10;101387.75;4900581;29;46085;-47
2022/07/27 02:05:07;;;;;;;;;4.00;2.50;;;;;24.70;40.75;101387.94;4900556;29;45326;-49
2022/07/27 02:07:32;;;;;;;;;2.00;2.00;;;;;24.71;41.17;101386.13;4900373;29;45485;-46
2022/07/27 02:09:58;;;;;;;;;3.00;2.75;;;;;24.72;41.19;101392.28;4900117;29;45364;-48
2022/07/27 02:12:35;;;;;;;;;3.00;3.00;;;;;24.71;41.28;101391.41;4900168;29;45305;-45
2022/07/27 02:15:05;;;;;;;;;6.00;3.00;;;;;24.67;40.89;101385.44;4900048;29;45658;-48
2022/07/27 02:17:31;;;;;;;;;3.00;3.00;;;;;24.68;41.50;101381.88;4900146;29;45277;-50
2022/07/27 02:19:56;;;;;;;;;3.00;3.00;;;;;24.67;40.87;101388.09;4900164;29;45250;-52
2022/07/27 02:22:21;;;;;;;;;3.00;3.00;;;;;24.66;40.82;101381.09;4900009;29;45335;-47
2022/07/27 02:24:47;;;;;;;;;3.50;3.50;;;;;24.68;41.25;101387.16;4899721;28;45184;-48
2022/07/27 02:27:12;;;;;;;;;3.00;3.00;;;;;24.69;40.80;101388.03;4900057;29;45341;-52
2022/07/27 02:29:38;;;;;;;;;4.00;3.00;;;;;24.67;40.84;101385.44;4900317;29;45455;-53
2022/07/27 02:32:04;;;;;;;;;3.00;3.00;;;;;24.66;40.87;101389.03;4898549;29;46301;-50
2022/07/27 02:34:29;;;;;;;;;4.25;3.25;;;;;24.64;41.20;101385.63;4899964;28;45468;-51
2022/07/27 02:36:54;;;;;;;;;4.00;3.00;;;;;24.62;41.22;101392.84;4899711;29;45269;-49
2022/07/27 02:39:20;;;;;;;;;3.00;2.00;;;;;24.60;40.94;101389.44;4900049;29;45617;-47
2022/07/27 02:41:46;;;;;;;;;3.00;3.00;;;;;24.59;41.21;101394.81;4899050;29;46322;-46
2022/07/27 02:44:13;;;;;;;;;2.00;2.00;;;;;24.58;41.17;101391.34;4899191;29;45860;-47
2022/07/27 02:46:39;;;;;;;;;2.00;2.00;;;;;24.58;41.25;101390.50;4900199;29;45351;-46
2022/07/27 02:49:04;;;;;;;;;2.50;2.50;;;;;24.59;41.14;101397.47;4899636;29;45644;-46
2022/07/27 02:51:30;;;;;;;;;2.50;2.50;;;;;24.58;41.47;101396.63;4899572;29;46172;-45
2022/07/27 02:53:55;;;;;;;;;3.00;2.75;;;;;24.59;41.15;101390.38;4899478;29;45408;-46
2022/07/27 02:56:20;;;;;;;;;4.00;3.00;;;;;24.59;41.40;101387.75;4899892;29;45362;-47
2022/07/27 02:58:46;;;;;;;;;3.00;3.00;;;;;24.59;41.15;101386.88;4898096;29;45357;-49
2022/07/27 03:01:11;;;;;;;;;2.25;2.00;;;;;24.61;41.26;101390.28;4899398;29;46477;-49
2022/07/27 03:03:37;;;;;;;;;0.50;0.00;;;;;24.60;41.17;101383.28;4899725;29;45326;-51
2022/07/27 03:06:05;;;;;;;;;3.50;1.25;;;;;24.60;41.03;101384.13;4899448;29;45257;-48
2022/07/27 03:08:31;;;;;;;;;4.00;2.00;;;;;24.59;41.55;101377.13;4899696;29;45431;-50
2022/07/27 03:10:56;;;;;;;;;2.50;2.00;;;;;24.60;41.37;101385.91;4899122;29;46615;-50
2022/07/27 03:13:21;;;;;;;;;3.00;3.00;;;;;24.58;40.88;101377.25;4897435;29;61796;-46
2022/07/27 03:15:47;;;;;;;;;3.50;2.00;;;;;24.58;40.77;101385.19;4899116;29;45346;-52
2022/07/27 03:18:12;;;;;;;;;4.25;3.00;;;;;24.56;41.45;101382.63;4899734;29;45450;-50
2022/07/27 03:20:37;;;;;;;;;3.00;3.00;;;;;24.54;40.84;101380.09;4899562;29;46441;-48
2022/07/27 03:23:03;;;;;;;;;2.25;2.00;;;;;24.50;40.82;101373.28;4899034;29;45346;-50
2022/07/27 03:25:28;;;;;;;;;3.25;2.50;;;;;24.48;40.62;101383.09;4899239;29;45309;-52
2022/07/27 03:27:53;;;;;;;;;3.00;3.00;;;;;24.47;41.37;101377.91;4898913;29;45387;-51
2022/07/27 03:30:19;;;;;;;;;2.00;2.00;;;;;24.46;40.88;101379.72;4899138;29;45411;-49
2022/07/27 03:32:44;;;;;;;;;5.50;3.00;;;;;24.47;41.25;101383.22;4897299;29;45339;-50
2022/07/27 03:35:10;;;;;;;;;5.00;2.00;;;;;24.45;40.79;101379.81;4899454;29;45369;-48
2022/07/27 03:37:35;;;;;;;;;2.00;2.00;;;;;24.45;40.81;101383.31;4899573;29;45614;-50
2022/07/27 03:40:01;;;;;;;;;4.75;4.00;;;;;24.45;41.26;101378.03;4898678;29;46130;-51
2022/07/27 03:42:26;;;;;;;;;4.50;2.50;;;;;24.45;41.39;101379.81;4899001;29;45239;-50
2022/07/27 03:44:51;;;;;;;;;4.00;2.50;;;;;24.46;40.82;101378.88;4898889;29;45234;-50
2022/07/27 03:47:17;;;;;;;;;6.25;4.25;;;;;24.44;41.09;101378.09;4899179;29;45418;-50
2022/07/27 03:49:42;;;;;;;;;3.00;3.00;;;;;24.44;40.65;101378.09;4898555;29;45387;-51
2022/07/27 03:52:08;;;;;;;;;3.00;3.00;;;;;24.44;41.07;101378.97;4897968;29;45284;-54
2022/07/27 03:54:33;;;;;;;;;4.00;4.00;;;;;24.44;41.29;101380.75;4899650;29;45296;-52
2022/07/27 03:57:00;;;;;;;;;2.00;2.00;;;;;24.43;40.99;101379.06;4902139;29;45166;-52
2022/07/27 03:59:25;;;;;;;;;4.00;3.00;;;;;24.43;40.99;101387.00;4902219;29;47270;-52
2022/07/27 04:01:51;;;;;;;;;2.50;2.50;;;;;24.41;40.72;101379.16;4901833;29;45507;-52
2022/07/27 04:04:16;;;;;;;;;4.00;4.00;;;;;24.38;41.14;101374.91;4902283;29;45396;-51
2022/07/27 04:06:41;;;;;;;;;4.00;3.00;;;;;24.38;40.70;101382.88;4902106;29;45482;-53
2022/07/27 04:09:07;;;;;;;;;3.00;3.00;;;;;24.38;41.03;101374.03;4901890;28;50218;-56
2022/07/27 04:11:32;;;;;;;;;5.00;3.00;;;;;24.35;40.73;101379.56;4902010;29;45452;-55
2022/07/27 04:13:57;;;;;;;;;3.50;3.00;;;;;24.35;40.97;101379.56;4901800;29;45316;-54
2022/07/27 04:16:22;;;;;;;;;3.75;3.00;;;;;24.33;40.99;101369.03;4902296;29;45495;-52
2022/07/27 04:18:48;;;;;;;;;3.00;3.00;;;;;24.33;40.34;101378.81;4901531;28;45444;-49
2022/07/27 04:21:14;;;;;;;;;4.00;2.75;;;;;24.30;40.48;101371.91;4901810;29;45410;-48
2022/07/27 04:23:40;;;;;;;;;4.25;3.00;;;;;24.19;40.95;101372.56;4902139;29;45404;-47
2022/07/27 04:26:05;;;;;;;;;5.50;2.75;;;;;24.14;40.64;101379.09;4902014;29;45363;-48
2022/07/27 04:28:31;;;;;;;;;1.75;1.75;;;;;24.00;41.18;101370.22;4901332;29;45238;-51
2022/07/27 04:30:56;;;;;;;;;3.00;3.00;;;;;23.92;40.77;101386.53;4901388;29;45329;-48
2022/07/27 04:33:22;;;;;;;;;3.75;3.00;;;;;23.86;40.90;101373.69;4901715;29;45230;-56
2022/07/27 04:35:47;;;;;;;;;4.00;3.00;;;;;23.82;41.04;101381.91;4901613;29;45363;-56
2022/07/27 04:38:12;;;;;;;;;5.00;3.00;;;;;23.73;41.13;101381.53;4901512;29;46200;-49
2022/07/27 04:40:38;;;;;;;;;3.50;3.00;;;;;23.70;40.91;101383.50;4901735;28;45342;-51
2022/07/27 04:43:04;;;;;;;;;3.25;2.00;;;;;23.63;41.30;101383.88;4901328;29;45826;-53
2022/07/27 04:45:30;;;;;;;;;4.25;2.00;;;;;23.58;40.79;101382.44;4901677;29;45214;-50
2022/07/27 04:47:56;;;;;;;;;2.00;2.00;;;;;23.56;41.18;101381.66;4901147;28;46763;-52
2022/07/27 04:50:21;;;;;;;;;4.50;2.00;;;;;23.53;41.16;101376.59;4901190;28;45441;-50
2022/07/27 04:52:47;;;;;;;;;4.50;3.00;;;;;23.53;41.22;101379.22;4901188;29;45355;-49
2022/07/27 04:55:12;;;;;;;;;3.25;3.25;;;;;23.51;41.04;101378.47;4901708;29;45469;-56
2022/07/27 04:57:40;;;;;;;;;3.75;2.00;;;;;23.48;41.08;101374.22;4901423;29;45488;-46
2022/07/27 05:00:07;;;;;;;;;3.50;2.25;;;;;23.42;41.02;101380.72;4901493;29;45744;-47
2022/07/27 05:02:33;;;;;;;;;4.00;3.00;;;;;23.36;41.30;101375.78;4901285;29;45266;-48
2022/07/27 05:04:59;;;;;;;;;2.00;2.00;;;;;23.33;41.12;101375.94;4900687;29;45260;-47
2022/07/27 05:07:25;;;;;;;;;2.25;2.25;;;;;23.31;41.19;101372.56;4900974;29;46561;-51
2022/07/27 05:09:51;;;;;;;;;5.75;1.50;;;;;23.25;40.98;101372.91;4900805;29;45237;-45
2022/07/27 05:12:17;;;;;;;;;2.25;2.25;;;;;23.23;41.22;101378.31;4901081;29;45364;-51
2022/07/27 05:14:42;;;;;;;;;3.50;2.25;;;;;23.20;41.00;101386.41;4901056;29;45458;-50
2022/07/27 05:17:08;;;;;;;;;2.00;2.00;;;;;23.16;40.98;101380.41;4901153;29;46143;-46
2022/07/27 05:19:33;;;;;;;;;4.25;3.00;;;;;23.13;41.22;101383.22;4901065;29;45417;-49
2022/07/27 05:21:59;;;;;;;;;4.00;3.25;;;;;23.12;41.07;101384.16;4900953;29;45407;-47
2022/07/27 05:24:24;;;;;;;;;4.00;4.00;;;;;23.12;41.47;101389.44;4901200;29;45367;-50
2022/07/27 05:26:50;;;;;;;;;3.75;3.00;;;;;23.12;41.17;101388.63;4899876;29;55037;-56
2022/07/27 05:29:15;;;;;;;;;3.25;2.75;;;;;23.14;41.28;101395.50;4900946;29;45452;-47
2022/07/27 05:31:40;;;;;;;;;3.75;2.50;;;;;23.16;41.17;101396.28;4900968;29;45413;-48
2022/07/27 05:34:06;;;;;;;;;2.50;1.75;;;;;23.19;41.17;101397.06;4901452;28;45306;-47
2022/07/27 05:36:31;;;;;;;;;2.00;2.00;;;;;23.20;41.06;101398.78;4900697;29;46323;-48
2022/07/27 05:38:57;;;;;;;;;2.00;2.00;;;;;23.19;41.27;101397.06;4900253;29;45504;-47
2022/07/27 05:41:24;;;;;;;;;3.50;3.00;;;;;23.19;41.00;101404.97;4900675;28;45407;-46
2022/07/27 05:43:49;;;;;;;;;3.00;3.00;;;;;23.19;40.62;101397.91;4900743;29;45583;-47
2022/07/27 05:46:15;;;;;;;;;2.50;2.50;;;;;23.19;40.79;101395.28;4900479;29;46424;-48
2022/07/27 05:48:40;;;;;;;;;6.50;2.75;;;;;23.17;40.77;101397.97;4899248;29;45367;-47
2022/07/27 05:51:05;;;;;;;;;3.00;3.00;;;;;23.17;40.71;101399.75;4900797;29;45324;-46
2022/07/27 05:53:31;;;;;;;;;2.25;2.00;;;;;23.15;40.95;101401.66;4899402;29;45958;-47
2022/07/27 05:55:56;;;;;;;;;4.00;2.25;;;;;23.12;41.28;101399.19;4900071;29;46484;-46
2022/07/27 05:58:21;;;;;;;;;3.00;2.00;;;;;23.09;40.64;101402.88;4900275;29;45405;-49
2022/07/27 06:00:47;;;;;;;;;2.00;2.00;;;;;23.08;40.97;101403.81;4900285;29;45423;-47
2022/07/27 06:03:12;;;;;;;;;2.50;2.25;;;;;23.05;41.24;101405.75;4900521;29;45316;-46
2022/07/27 06:05:37;;;;;;;;;3.75;3.75;;;;;23.02;41.18;101412.06;4900327;29;50490;-47
2022/07/27 06:08:07;;;;;;;;;5.00;3.00;;;;;23.01;41.33;101410.38;4899894;29;45423;-47
2022/07/27 06:10:35;;;;;;;;;2.00;2.00;;;;;22.99;40.94;101414.88;4900447;28;45400;-47
2022/07/27 06:13:05;;;;;;;;;4.50;2.00;;;;;22.98;41.29;101414.03;4900243;29;45395;-48
2022/07/27 06:15:30;;;;;;;;;3.50;2.50;;;;;22.96;40.97;101412.44;4900152;29;45575;-48
2022/07/27 06:17:56;;;;;;;;;3.25;2.50;;;;;22.96;41.35;101409.78;4899898;28;45354;-48
2022/07/27 06:20:23;;;;;;;;;5.50;3.75;;;;;22.96;41.21;101420.38;4900132;29;45242;-49
2022/07/27 06:22:54;;;;;;;;;6.25;3.75;;;;;22.95;41.04;101416.84;4899992;29;45209;-47
2022/07/27 06:25:21;;;;;;;;;4.25;4.25;;;;;22.97;41.20;101417.63;4900009;29;46341;-48
2022/07/27 06:27:47;;;;;;;;;6.00;3.00;;;;;22.98;41.42;101418.50;4898298;29;46031;-46
2022/07/27 06:30:15;;;;;;;;;3.00;3.00;;;;;22.98;41.34;101415.84;4899976;29;45299;-54
2022/07/27 06:32:40;;;;;;;;;4.75;3.00;;;;;23.02;41.57;101420.00;4900485;29;45566;-50
2022/07/27 06:35:07;;;;;;;;;4.00;3.00;;;;;23.04;41.27;101418.13;4899422;29;45664;-49
2022/07/27 06:37:32;;;;;;;;;2.50;2.00;;;;;23.06;41.18;101416.25;4899802;29;45498;-54
2022/07/27 06:39:59;;;;;;;;;1.50;1.50;;;;;23.07;40.94;101412.69;4899679;29;45474;-51
2022/07/27 06:42:25;;;;;;;;;3.75;3.75;;;;;23.09;41.29;101420.50;4900127;29;45357;-55
2022/07/27 06:44:50;;;;;;;;;2.25;2.25;;;;;23.09;40.91;101421.38;4899443;29;46106;-50
2022/07/27 06:47:15;;;;;;;;;3.50;3.50;;;;;23.08;40.79;101414.38;4899877;29;45426;-47
2022/07/27 06:49:40;;;;;;;;;3.50;3.00;;;;;23.10;40.78;101416.94;4899253;29;46516;-47
2022/07/27 06:52:06;;;;;;;;;3.00;3.00;;;;;23.09;41.05;101421.38;4900042;29;45607;-47
2022/07/27 06:54:32;;;;;;;;;3.25;3.25;;;;;23.10;41.04;101422.22;4899561;29;46270;-47
2022/07/27 06:56:57;;;;;;;;;4.00;3.00;;;;;23.08;41.02;101411.75;4899363;29;45413;-48
2022/07/27 06:59:22;;;;;;;;;5.75;4.00;;;;;23.09;41.02;101409.94;4899596;29;45278;-50
2022/07/27 07:01:48;;;;;;;;;5.50;3.00;;;;;23.13;41.35;101422.88;4899524;29;45227;-48
2022/07/27 07:04:13;;;;;;;;;3.00;3.00;;;;;23.20;41.13;101422.59;4899364;29;45300;-48
2022/07/27 07:06:38;;;;;;;;;4.00;3.25;;;;;23.25;41.25;101424.03;4898338;29;45312;-47
2022/07/27 07:09:04;;;;;;;;;4.25;2.00;;;;;23.28;41.16;101423.00;4899171;29;45226;-48
2022/07/27 07:11:29;;;;;;;;;4.00;3.00;;;;;23.31;41.07;101428.09;4899580;29;45376;-47
2022/07/27 07:13:55;;;;;;;;;2.50;2.50;;;;;23.35;40.98;101431.41;4899014;29;46247;-47
2022/07/27 07:16:20;;;;;;;;;3.75;3.00;;;;;23.39;40.92;101427.63;4898167;29;45627;-48
2022/07/27 07:18:45;;;;;;;;;5.50;3.75;;;;;23.42;41.31;101433.63;4899456;29;45720;-49
2022/07/27 07:21:11;;;;;;;;;5.00;3.00;;;;;23.47;41.10;101436.00;4899701;29;45504;-46
2022/07/27 07:23:36;;;;;;;;;3.00;3.00;;;;;23.50;40.72;101433.16;4899331;29;46469;-51
2022/07/27 07:26:01;;;;;;;;;4.00;3.75;;;;;23.53;41.13;101438.28;4898975;29;45741;-47
2022/07/27 07:28:27;;;;;;;;;3.75;3.75;;;;;23.57;41.00;101436.28;4899492;29;45378;-49
2022/07/27 07:30:52;;;;;;;;;4.00;3.00;;;;;23.59;40.93;101440.53;4902595;28;45650;-50
2022/07/27 07:33:18;;;;;;;;;4.50;4.00;;;;;23.62;40.91;101436.88;4901773;29;45461;-52
2022/07/27 07:35:43;;;;;;;;;6.50;3.50;;;;;23.66;40.93;101433.09;4901849;29;45415;-52
2022/07/27 07:38:08;;;;;;;;;4.50;3.25;;;;;23.69;41.01;101432.09;4902805;29;45422;-54
2022/07/27 07:40:34;;;;;;;;;5.50;4.00;;;;;23.72;40.53;101438.03;4902755;29;45554;-51
2022/07/27 07:43:01;;;;;;;;;4.25;4.00;;;;;23.74;41.03;101438.81;4900799;29;47987;-52
2022/07/27 07:45:29;;;;;;;;;4.00;4.00;;;;;23.77;40.48;101435.97;4902364;29;45714;-56
2022/07/27 07:47:55;;;;;;;;;4.00;4.00;;;;;23.79;40.48;101438.53;4902250;29;45322;-53
2022/07/27 07:50:22;;;;;;;;;4.50;3.50;;;;;23.83;40.79;101436.56;4902416;29;45341;-50
2022/07/27 07:52:50;;;;;;;;;6.25;4.25;;;;;23.84;40.79;101439.09;4901784;28;47801;-50
2022/07/27 07:55:19;;;;;;;;;4.25;4.25;;;;;23.86;40.29;101431.06;4902283;29;45553;-48
2022/07/27 07:57:44;;;;;;;;;6.50;5.25;;;;;23.87;40.52;101432.75;4902194;29;45314;-46
2022/07/27 08:00:10;;;;;;;;;4.50;4.50;;;;;23.89;40.69;101428.22;4902691;29;45293;-51
2022/07/27 08:02:49;;;;;;;;;6.00;3.25;;;;;23.91;40.74;101426.34;4902399;28;46337;-51
2022/07/27 08:05:15;;;;;;;;;6.00;6.00;;;;;23.93;40.80;101427.09;4902158;29;45320;-52
2022/07/27 08:07:42;;;;;;;;;6.50;6.00;;;;;23.93;40.63;101432.41;4902303;29;45471;-46
2022/07/27 08:10:10;;;;;;;;;3.50;3.00;;;;;23.92;40.31;101426.25;4902411;29;45651;-47
2022/07/27 08:12:37;;;;;;;;;6.25;5.25;;;;;23.92;40.82;101422.75;4900957;29;47165;-50
2022/07/27 08:15:05;;;;;;;;;4.75;4.00;;;;;23.95;40.82;101430.56;4901630;29;45432;-47
2022/07/27 08:17:31;;;;;;;;;3.25;3.25;;;;;23.97;40.73;101423.38;4902029;29;45405;-51
2022/07/27 08:19:56;;;;;;;;;4.00;4.00;;;;;23.99;40.68;101420.63;4901718;28;45247;-48
2022/07/27 08:22:21;;;;;;;;;4.25;4.25;;;;;23.99;40.51;101426.75;4901639;29;46013;-48
2022/07/27 08:24:47;;;;;;;;;3.75;3.75;;;;;24.01;40.53;101426.69;4901511;29;45258;-46
2022/07/27 08:27:12;;;;;;;;;8.00;6.50;;;;;24.01;40.47;101430.16;4901553;28;45282;-47
2022/07/27 08:29:38;;;;;;;;;5.75;5.75;;;;;24.03;40.33;101425.63;4902038;29;45230;-47
2022/07/27 08:32:04;;;;;;;;;6.00;5.00;;;;;24.05;40.75;101429.03;4901250;29;45428;-48
2022/07/27 08:34:29;;;;;;;;;6.00;5.00;;;;;24.06;40.67;101428.09;4884414;29;46140;-52
2022/07/27 10:35:34;;;;;;;;;6.75;5.00;;;;;24.81;38.75;101402.28;5430985;23;46228;-44
2022/07/27 10:38:11;;;;;;;;;8.25;4.50;;;;;24.81;38.03;101404.94;4910638;28;45421;-44
2022/07/27 10:40:38;;;;;;;;;6.00;3.50;;;;;24.81;38.62;101399.63;4917227;28;45439;-46
2022/07/27 10:43:18;;;;;;;;;5.50;5.50;;;;;24.81;38.19;101397.81;4917166;28;45207;-44
2022/07/27 10:45:46;;;;;;;;;6.00;4.50;;;;;24.83;37.93;101397.75;4880206;29;46077;-44
2022/07/27 10:48:37;;;;;;;;;3.50;3.50;;;;;24.84;38.37;101402.09;4881047;29;45419;-46
2022/07/27 10:51:12;;;;;;;;;5.00;5.00;;;;;24.81;38.08;101389.88;4880720;29;45383;-47
2022/07/27 10:53:40;;;;;;;;;3.50;3.50;;;;;24.84;38.15;101380.88;4880874;29;45439;-48
2022/07/27 10:56:07;;;;;;;;;4.25;4.00;;;;;24.86;37.81;101386.91;4880449;29;46860;-44
2022/07/27 10:58:32;;;;;;;;;4.25;3.25;;;;;24.88;38.28;101376.22;4880670;29;45828;-48
2022/07/27 11:01:00;;;;;;;;;4.67;4.00;;;;;24.90;37.61;101382.28;4880222;29;45325;-47
2022/07/27 11:03:34;;;;;;;;;4.50;3.25;;;;;24.89;37.39;101369.97;4880081;29;45389;-45
2022/07/27 11:06:06;;;;;;;;;3.50;3.50;;;;;24.93;37.52;101371.44;4880202;29;46036;-46
2022/07/27 11:08:37;;;;;;;;;5.75;3.50;;;;;24.93;37.37;101369.66;4880397;29;45366;-48
2022/07/27 11:11:04;;;;;;;;;5.00;4.00;;;;;24.94;37.99;101359.91;4880437;29;45442;-45
2022/07/27 11:13:31;;;;;;;;;6.00;3.50;;;;;24.94;37.23;101365.19;4880727;29;45287;-45
2022/07/27 11:15:58;;;;;;;;;4.00;4.00;;;;;24.95;37.78;101362.47;4880107;29;46283;-46
2022/07/27 11:18:28;;;;;;;;;7.00;3.75;;;;;24.95;37.39;101364.25;4880339;29;45720;-44
2022/07/27 11:21:14;;;;;;;;;3.00;3.00;;;;;24.95;37.25;101354.50;4880396;29;45305;-45
2022/07/27 11:23:40;;;;;;;;;8.00;5.00;;;;;24.96;37.68;101353.56;4880989;29;45287;-44
2022/07/27 11:26:05;;;;;;;;;5.00;3.00;;;;;24.97;37.51;101349.94;4880232;29;46132;-44
2022/07/27 11:28:32;;;;;;;;;4.25;4.00;;;;;24.99;37.10;101348.03;4880236;29;45431;-44
2022/07/27 11:30:59;;;;;;;;;3.75;3.00;;;;;25.00;36.88;101340.94;4880201;29;45775;-44
2022/07/27 11:33:24;;;;;;;;;3.75;3.50;;;;;25.01;36.93;101351.44;4880598;29;45520;-44
2022/07/27 11:35:55;;;;;;;;;4.00;3.25;;;;;25.01;36.97;101343.50;4879733;29;46131;-43
2022/07/27 11:38:20;;;;;;;;;6.00;3.50;;;;;25.01;37.14;101346.13;4880345;29;45734;-45
2022/07/27 11:40:52;;;;;;;;;6.00;4.00;;;;;25.01;36.76;101340.84;4878621;29;45349;-44
2022/07/27 11:43:37;;;;;;;;;3.50;3.00;;;;;25.04;37.26;101346.91;4880512;29;45396;-46
2022/07/27 11:46:19;;;;;;;;;5.25;3.00;;;;;25.03;36.71;101339.88;4879835;29;46064;-45
2022/07/27 11:48:52;;;;;;;;;5.50;3.25;;;;;25.02;36.93;101339.06;4879837;29;45340;-47
2022/07/27 11:51:18;;;;;;;;;3.00;3.00;;;;;25.03;36.67;101335.41;4880041;29;45244;-43
2022/07/27 11:53:44;;;;;;;;;3.00;3.00;;;;;25.03;37.14;101339.88;4880257;29;45284;-45
2022/07/27 11:56:10;;;;;;;;;3.00;3.00;;;;;25.00;36.99;101333.81;4880157;29;46377;-45
2022/07/27 11:58:56;;;;;;;;;3.50;3.00;;;;;25.03;36.46;101338.06;4894498;29;45856;-48
2022/07/27 12:01:32;;;;;;;;;4.75;3.50;;;;;25.01;36.12;101330.22;4879908;29;45285;-46
2022/07/27 12:04:22;;;;;;;;;4.25;1.50;;;;;25.03;36.67;101334.59;4880167;29;45366;-45
2022/07/27 12:07:01;;;;;;;;;4.00;4.00;;;;;25.01;36.39;101322.28;4894081;28;46890;-45
2022/07/27 12:09:30;;;;;;;;;4.00;3.00;;;;;25.02;36.69;101323.13;4879886;29;45177;-45
2022/07/27 12:12:07;;;;;;;;;3.00;3.00;;;;;25.04;36.67;101317.72;4879885;29;45340;-45
2022/07/27 12:14:36;;;;;;;;;4.25;2.25;;;;;25.04;35.99;101309.78;4879510;29;45387;-45
2022/07/27 12:17:40;;;;;;;;;2.00;2.00;;;;;25.04;36.26;101317.72;4882732;29;45591;-46
2022/07/27 12:20:08;;;;;;;;;3.00;3.00;;;;;25.04;36.50;101312.41;4861056;29;45436;-46
2022/07/27 12:22:42;;;;;;;;;3.50;3.00;;;;;25.03;35.91;101313.38;4883074;29;45287;-46
2022/07/27 12:25:28;;;;;;;;;1.50;1.50;;;;;25.03;35.80;101318.66;4883277;29;45267;-46
2022/07/27 12:27:58;;;;;;;;;3.50;3.50;;;;;25.04;35.99;101307.13;4882537;29;46137;-43
2022/07/27 12:30:48;;;;;;;;;5.00;3.00;;;;;25.05;35.73;101306.16;4882899;29;45602;-44
2022/07/27 12:33:35;;;;;;;;;6.25;5.00;;;;;25.05;35.98;101306.16;4880603;28;45462;-44
2022/07/27 12:36:04;;;;;;;;;4.50;4.25;;;;;25.05;35.80;101296.38;4882775;29;45527;-44
2022/07/27 12:38:40;;;;;;;;;6.00;4.75;;;;;25.05;35.43;101293.75;4882529;29;45693;-44
2022/07/27 12:41:06;;;;;;;;;4.25;3.75;;;;;25.05;35.71;101299.03;4882643;29;45399;-44
2022/07/27 12:43:31;;;;;;;;;5.25;3.75;;;;;25.06;35.38;101289.31;4882824;29;45456;-44
2022/07/27 12:45:57;;;;;;;;;4.00;3.00;;;;;25.06;35.03;101287.47;4882696;29;45324;-45
2022/07/27 12:48:26;;;;;;;;;2.00;0.75;;;;;25.05;35.47;101288.44;4882474;29;45553;-44
2022/07/27 12:51:03;;;;;;;;;3.00;3.00;;;;;25.06;35.28;101289.31;4896770;28;45830;-44
2022/07/27 12:53:30;;;;;;;;;4.00;4.00;;;;;25.07;35.67;101285.69;4882711;29;45387;-48
2022/07/27 12:55:57;;;;;;;;;4.25;3.25;;;;;25.09;35.00;101283.78;4882677;29;45597;-44
2022/07/27 12:58:24;;;;;;;;;2.25;2.25;;;;;25.10;34.76;101274.84;4882412;29;45414;-44
2022/07/27 13:00:49;;;;;;;;;3.75;3.00;;;;;25.10;35.30;101274.84;4882241;29;45695;-44
2022/07/27 13:03:15;;;;;;;;;3.00;3.00;;;;;25.11;34.72;101271.25;4882631;29;45332;-46
2022/07/27 13:05:41;;;;;;;;;2.00;2.00;;;;;25.11;35.25;101265.94;4882793;28;45606;-48
2022/07/27 13:08:07;;;;;;;;;3.00;3.00;;;;;25.13;34.65;101266.69;4882247;29;47119;-44
2022/07/27 13:10:35;;;;;;;;;4.00;3.00;;;;;25.12;34.93;101262.34;4882102;29;45234;-44
2022/07/27 13:13:00;;;;;;;;;3.00;3.00;;;;;25.13;34.59;101264.06;4882237;29;45476;-45
2022/07/27 13:15:26;;;;;;;;;4.00;4.00;;;;;25.14;34.70;101263.09;4882475;29;45553;-47
2022/07/27 13:17:51;;;;;;;;;2.00;2.00;;;;;25.14;34.63;101255.13;4896275;29;47234;-47
2022/07/27 13:20:17;;;;;;;;;2.50;2.00;;;;;25.14;34.24;101255.97;4882145;29;45348;-45
2022/07/27 13:22:44;;;;;;;;;2.00;2.00;;;;;25.14;34.05;101250.66;4882355;29;45389;-46